Norcross, Georgia
Current Conditions -  °F | °C
As of 1:53 AM on Sunday 26 Oct 2014 (Local Time) from KPDK Reporting Station
Clear Clear  
Wind Chill: 59°   Ceiling: Unl
Heat Index: 59°   Visibility: 8mi
Dew Point: 53°   Wind: 7mph
Humidity: 81%   Direction: 300°WNW
Pressure: 30.01"   Gusts: NA
Location:  33.94°N, 84.21°W
Report Text: KPDK 260553Z 30006KT 8SM CLR 15/12 A3001 RMK AO2 SLP152 T01500117 10167 20117 58012
Loading
Personal Weather Stations






























Interactive Weather Map
Tropical Storm Tracking
New forecast layout! Learn more

10-Day Weather Forecast

Advertisements
Track Severe Weather on mobile